sensor_id;sensor_type;location;lat;lon;timestamp;P1;durP1;ratioP1;P2;durP2;ratioP2
37311;SDS011;23197;53.912;9.138;2022-11-15T00:01:44;48.00;;;23.55;;
37311;SDS011;23197;53.912;9.138;2022-11-15T00:04:28;43.05;;;22.88;;
37311;SDS011;23197;53.912;9.138;2022-11-15T00:07:12;45.90;;;22.33;;
37311;SDS011;23197;53.912;9.138;2022-11-15T00:09:56;48.78;;;22.33;;
37311;SDS011;23197;53.912;9.138;2022-11-15T00:12:40;45.47;;;22.45;;
37311;SDS011;23197;53.912;9.138;2022-11-15T00:15:23;44.55;;;23.10;;
37311;SDS011;23197;53.912;9.138;2022-11-15T00:18:12;45.80;;;22.13;;
37311;SDS011;23197;53.912;9.138;2022-11-15T00:21:01;44.00;;;22.27;;
37311;SDS011;23197;53.912;9.138;2022-11-15T00:23:48;49.23;;;23.70;;
37311;SDS011;23197;53.912;9.138;2022-11-15T00:26:32;51.55;;;24.00;;
37311;SDS011;23197;53.912;9.138;2022-11-15T00:29:16;47.22;;;23.23;;
37311;SDS011;23197;53.912;9.138;2022-11-15T00:31:59;42.75;;;22.20;;
37311;SDS011;23197;53.912;9.138;2022-11-15T00:34:43;45.72;;;23.23;;
37311;SDS011;23197;53.912;9.138;2022-11-15T00:37:27;49.80;;;23.25;;
37311;SDS011;23197;53.912;9.138;2022-11-15T00:40:11;47.55;;;23.40;;
37311;SDS011;23197;53.912;9.138;2022-11-15T00:42:59;43.77;;;21.87;;
37311;SDS011;23197;53.912;9.138;2022-11-15T00:45:43;51.20;;;24.60;;
37311;SDS011;23197;53.912;9.138;2022-11-15T00:48:27;46.03;;;22.77;;
37311;SDS011;23197;53.912;9.138;2022-11-15T00:51:12;50.10;;;24.63;;
37311;SDS011;23197;53.912;9.138;2022-11-15T00:53:56;48.38;;;21.95;;
37311;SDS011;23197;53.912;9.138;2022-11-15T00:56:40;45.83;;;23.20;;
37311;SDS011;23197;53.912;9.138;2022-11-15T00:59:24;46.50;;;23.80;;
37311;SDS011;23197;53.912;9.138;2022-11-15T01:02:08;43.72;;;22.50;;
37311;SDS011;23197;53.912;9.138;2022-11-15T01:04:52;40.83;;;20.23;;
37311;SDS011;23197;53.912;9.138;2022-11-15T01:07:35;50.72;;;23.85;;
37311;SDS011;23197;53.912;9.138;2022-11-15T01:10:19;50.25;;;24.20;;
37311;SDS011;23197;53.912;9.138;2022-11-15T01:13:04;48.27;;;23.27;;
37311;SDS011;23197;53.912;9.138;2022-11-15T01:15:48;46.60;;;23.30;;
37311;SDS011;23197;53.912;9.138;2022-11-15T01:18:32;45.67;;;22.88;;
37311;SDS011;23197;53.912;9.138;2022-11-15T01:21:17;48.78;;;24.15;;
37311;SDS011;23197;53.912;9.138;2022-11-15T01:24:02;44.03;;;23.13;;
37311;SDS011;23197;53.912;9.138;2022-11-15T01:26:46;48.87;;;23.83;;
37311;SDS011;23197;53.912;9.138;2022-11-15T01:29:30;45.97;;;22.95;;
37311;SDS011;23197;53.912;9.138;2022-11-15T01:32:14;45.42;;;21.55;;
37311;SDS011;23197;53.912;9.138;2022-11-15T01:34:58;40.17;;;20.23;;
37311;SDS011;23197;53.912;9.138;2022-11-15T01:37:42;40.70;;;19.27;;
37311;SDS011;23197;53.912;9.138;2022-11-15T01:40:26;41.80;;;21.05;;
37311;SDS011;23197;53.912;9.138;2022-11-15T01:43:20;42.58;;;21.27;;
37311;SDS011;23197;53.912;9.138;2022-11-15T01:49:05;45.33;;;22.30;;
37311;SDS011;23197;53.912;9.138;2022-11-15T01:51:56;45.10;;;22.90;;
37311;SDS011;23197;53.912;9.138;2022-11-15T01:54:42;42.57;;;21.73;;
37311;SDS011;23197;53.912;9.138;2022-11-15T01:57:26;40.77;;;20.77;;
37311;SDS011;23197;53.912;9.138;2022-11-15T02:00:10;44.28;;;21.90;;
37311;SDS011;23197;53.912;9.138;2022-11-15T02:02:55;38.80;;;20.67;;
37311;SDS011;23197;53.912;9.138;2022-11-15T02:05:39;42.10;;;21.80;;
37311;SDS011;23197;53.912;9.138;2022-11-15T02:08:24;41.23;;;21.80;;
37311;SDS011;23197;53.912;9.138;2022-11-15T02:11:09;43.83;;;21.63;;
37311;SDS011;23197;53.912;9.138;2022-11-15T02:13:53;39.37;;;20.17;;
37311;SDS011;23197;53.912;9.138;2022-11-15T02:16:51;45.50;;;22.13;;
37311;SDS011;23197;53.912;9.138;2022-11-15T02:29:58;39.22;;;19.98;;
37311;SDS011;23197;53.912;9.138;2022-11-15T02:32:32;45.57;;;22.10;;
37311;SDS011;23197;53.912;9.138;2022-11-15T02:35:44;38.47;;;20.27;;
37311;SDS011;23197;53.912;9.138;2022-11-15T02:41:31;40.10;;;20.20;;
37311;SDS011;23197;53.912;9.138;2022-11-15T02:44:24;40.17;;;20.47;;
37311;SDS011;23197;53.912;9.138;2022-11-15T02:47:15;40.27;;;20.13;;
37311;SDS011;23197;53.912;9.138;2022-11-15T02:50:02;36.33;;;18.60;;
37311;SDS011;23197;53.912;9.138;2022-11-15T02:52:51;36.67;;;19.77;;
37311;SDS011;23197;53.912;9.138;2022-11-15T02:55:36;38.57;;;19.40;;
37311;SDS011;23197;53.912;9.138;2022-11-15T03:05:13;36.97;;;17.80;;
37311;SDS011;23197;53.912;9.138;2022-11-15T03:11:12;34.23;;;18.10;;
37311;SDS011;23197;53.912;9.138;2022-11-15T03:22:32;39.40;;;18.30;;
37311;SDS011;23197;53.912;9.138;2022-11-15T03:25:23;34.27;;;16.77;;
37311;SDS011;23197;53.912;9.138;2022-11-15T03:28:10;34.70;;;17.47;;
37311;SDS011;23197;53.912;9.138;2022-11-15T03:31:00;34.77;;;17.73;;
37311;SDS011;23197;53.912;9.138;2022-11-15T03:34:06;34.67;;;16.97;;
37311;SDS011;23197;53.912;9.138;2022-11-15T03:36:55;32.80;;;16.80;;
37311;SDS011;23197;53.912;9.138;2022-11-15T03:39:39;35.03;;;17.70;;
37311;SDS011;23197;53.912;9.138;2022-11-15T03:42:28;34.53;;;17.13;;
37311;SDS011;23197;53.912;9.138;2022-11-15T03:45:27;31.27;;;16.37;;
37311;SDS011;23197;53.912;9.138;2022-11-15T03:48:17;34.10;;;18.30;;
37311;SDS011;23197;53.912;9.138;2022-11-15T03:51:06;38.23;;;18.10;;
37311;SDS011;23197;53.912;9.138;2022-11-15T03:53:51;32.40;;;16.57;;
37311;SDS011;23197;53.912;9.138;2022-11-15T03:56:35;34.20;;;17.37;;
37311;SDS011;23197;53.912;9.138;2022-11-15T03:59:19;33.20;;;17.90;;
37311;SDS011;23197;53.912;9.138;2022-11-15T04:02:03;37.30;;;18.33;;
37311;SDS011;23197;53.912;9.138;2022-11-15T04:04:46;36.80;;;17.80;;
37311;SDS011;23197;53.912;9.138;2022-11-15T04:07:30;33.47;;;17.15;;
37311;SDS011;23197;53.912;9.138;2022-11-15T04:10:14;34.70;;;17.15;;
37311;SDS011;23197;53.912;9.138;2022-11-15T04:12:59;33.93;;;18.20;;
37311;SDS011;23197;53.912;9.138;2022-11-15T04:15:43;33.72;;;17.27;;
37311;SDS011;23197;53.912;9.138;2022-11-15T04:18:26;39.22;;;18.67;;
37311;SDS011;23197;53.912;9.138;2022-11-15T04:21:11;34.67;;;17.98;;
37311;SDS011;23197;53.912;9.138;2022-11-15T04:24:13;33.57;;;17.67;;
37311;SDS011;23197;53.912;9.138;2022-11-15T04:26:57;31.73;;;16.35;;
37311;SDS011;23197;53.912;9.138;2022-11-15T04:29:41;29.05;;;15.57;;
37311;SDS011;23197;53.912;9.138;2022-11-15T04:32:25;29.88;;;16.27;;
37311;SDS011;23197;53.912;9.138;2022-11-15T04:35:09;32.70;;;16.67;;
37311;SDS011;23197;53.912;9.138;2022-11-15T04:37:53;33.85;;;17.50;;
37311;SDS011;23197;53.912;9.138;2022-11-15T04:40:38;34.57;;;17.83;;
37311;SDS011;23197;53.912;9.138;2022-11-15T04:43:22;31.92;;;17.73;;
37311;SDS011;23197;53.912;9.138;2022-11-15T04:46:06;34.50;;;17.95;;
37311;SDS011;23197;53.912;9.138;2022-11-15T04:48:50;33.05;;;16.65;;
37311;SDS011;23197;53.912;9.138;2022-11-15T04:51:35;33.20;;;16.57;;
37311;SDS011;23197;53.912;9.138;2022-11-15T04:54:19;29.65;;;15.80;;
37311;SDS011;23197;53.912;9.138;2022-11-15T04:57:03;29.63;;;16.98;;
37311;SDS011;23197;53.912;9.138;2022-11-15T04:59:47;31.77;;;16.40;;
37311;SDS011;23197;53.912;9.138;2022-11-15T05:02:31;30.35;;;16.10;;
37311;SDS011;23197;53.912;9.138;2022-11-15T05:05:35;29.40;;;15.18;;
37311;SDS011;23197;53.912;9.138;2022-11-15T05:08:19;29.03;;;15.37;;
37311;SDS011;23197;53.912;9.138;2022-11-15T05:11:03;28.20;;;14.88;;
37311;SDS011;23197;53.912;9.138;2022-11-15T05:13:47;33.05;;;16.77;;
37311;SDS011;23197;53.912;9.138;2022-11-15T05:16:31;31.10;;;16.37;;
37311;SDS011;23197;53.912;9.138;2022-11-15T05:19:15;31.48;;;16.65;;
37311;SDS011;23197;53.912;9.138;2022-11-15T05:21:59;31.70;;;16.15;;
37311;SDS011;23197;53.912;9.138;2022-11-15T05:24:43;28.52;;;15.07;;
37311;SDS011;23197;53.912;9.138;2022-11-15T05:27:27;30.52;;;15.88;;
37311;SDS011;23197;53.912;9.138;2022-11-15T05:30:11;30.30;;;15.20;;
37311;SDS011;23197;53.912;9.138;2022-11-15T05:32:55;26.73;;;14.88;;
37311;SDS011;23197;53.912;9.138;2022-11-15T05:35:39;27.00;;;15.20;;
37311;SDS011;23197;53.912;9.138;2022-11-15T05:38:26;28.10;;;15.97;;
37311;SDS011;23197;53.912;9.138;2022-11-15T05:41:10;28.02;;;15.25;;
37311;SDS011;23197;53.912;9.138;2022-11-15T05:43:55;28.23;;;15.27;;
37311;SDS011;23197;53.912;9.138;2022-11-15T05:46:40;28.57;;;14.47;;
37311;SDS011;23197;53.912;9.138;2022-11-15T05:49:26;28.33;;;14.60;;
37311;SDS011;23197;53.912;9.138;2022-11-15T05:52:15;26.40;;;13.83;;
37311;SDS011;23197;53.912;9.138;2022-11-15T05:55:03;26.53;;;12.83;;
37311;SDS011;23197;53.912;9.138;2022-11-15T05:57:50;26.50;;;13.77;;
37311;SDS011;23197;53.912;9.138;2022-11-15T06:03:17;27.67;;;14.00;;
37311;SDS011;23197;53.912;9.138;2022-11-15T06:06:02;31.00;;;15.43;;
37311;SDS011;23197;53.912;9.138;2022-11-15T06:11:31;26.60;;;14.37;;
37311;SDS011;23197;53.912;9.138;2022-11-15T06:14:15;29.88;;;15.30;;
37311;SDS011;23197;53.912;9.138;2022-11-15T06:16:59;28.50;;;15.38;;
37311;SDS011;23197;53.912;9.138;2022-11-15T06:19:43;30.05;;;16.45;;
37311;SDS011;23197;53.912;9.138;2022-11-15T06:22:27;25.90;;;14.82;;
37311;SDS011;23197;53.912;9.138;2022-11-15T06:25:11;29.40;;;14.85;;
37311;SDS011;23197;53.912;9.138;2022-11-15T06:27:55;27.17;;;15.38;;
37311;SDS011;23197;53.912;9.138;2022-11-15T06:30:40;26.33;;;14.80;;
37311;SDS011;23197;53.912;9.138;2022-11-15T06:33:24;27.08;;;14.60;;
37311;SDS011;23197;53.912;9.138;2022-11-15T06:36:09;27.42;;;14.32;;
37311;SDS011;23197;53.912;9.138;2022-11-15T06:38:57;27.60;;;15.10;;
37311;SDS011;23197;53.912;9.138;2022-11-15T06:41:41;28.00;;;15.43;;
37311;SDS011;23197;53.912;9.138;2022-11-15T06:44:25;28.55;;;15.10;;
37311;SDS011;23197;53.912;9.138;2022-11-15T06:47:09;28.30;;;15.50;;
37311;SDS011;23197;53.912;9.138;2022-11-15T06:49:53;27.10;;;15.77;;
37311;SDS011;23197;53.912;9.138;2022-11-15T06:52:37;27.75;;;15.55;;
37311;SDS011;23197;53.912;9.138;2022-11-15T06:55:21;26.05;;;14.45;;
37311;SDS011;23197;53.912;9.138;2022-11-15T07:00:49;26.42;;;13.85;;
37311;SDS011;23197;53.912;9.138;2022-11-15T07:03:40;24.92;;;13.57;;
37311;SDS011;23197;53.912;9.138;2022-11-15T07:06:25;28.70;;;16.27;;
37311;SDS011;23197;53.912;9.138;2022-11-15T07:09:09;24.42;;;13.60;;
37311;SDS011;23197;53.912;9.138;2022-11-15T07:11:53;25.58;;;14.93;;
37311;SDS011;23197;53.912;9.138;2022-11-15T07:14:37;28.65;;;16.50;;
37311;SDS011;23197;53.912;9.138;2022-11-15T07:17:21;28.30;;;15.32;;
37311;SDS011;23197;53.912;9.138;2022-11-15T07:20:05;29.67;;;16.17;;
37311;SDS011;23197;53.912;9.138;2022-11-15T07:22:49;24.67;;;14.40;;
37311;SDS011;23197;53.912;9.138;2022-11-15T07:25:33;26.05;;;14.65;;
37311;SDS011;23197;53.912;9.138;2022-11-15T07:28:17;24.97;;;14.70;;
37311;SDS011;23197;53.912;9.138;2022-11-15T07:31:05;26.02;;;14.38;;
37311;SDS011;23197;53.912;9.138;2022-11-15T07:33:51;28.10;;;15.63;;
37311;SDS011;23197;53.912;9.138;2022-11-15T07:36:35;27.85;;;14.88;;
37311;SDS011;23197;53.912;9.138;2022-11-15T07:39:19;25.27;;;14.75;;
37311;SDS011;23197;53.912;9.138;2022-11-15T07:42:02;27.25;;;14.05;;
37311;SDS011;23197;53.912;9.138;2022-11-15T07:45:05;27.40;;;14.60;;
37311;SDS011;23197;53.912;9.138;2022-11-15T07:47:50;27.80;;;14.60;;
37311;SDS011;23197;53.912;9.138;2022-11-15T07:50:34;27.67;;;14.83;;
37311;SDS011;23197;53.912;9.138;2022-11-15T07:53:18;32.75;;;15.23;;
37311;SDS011;23197;53.912;9.138;2022-11-15T07:56:05;27.58;;;15.02;;
37311;SDS011;23197;53.912;9.138;2022-11-15T07:58:51;28.73;;;15.67;;
37311;SDS011;23197;53.912;9.138;2022-11-15T08:01:35;27.05;;;16.05;;
37311;SDS011;23197;53.912;9.138;2022-11-15T08:04:18;26.95;;;15.13;;
37311;SDS011;23197;53.912;9.138;2022-11-15T08:07:02;29.42;;;15.57;;
37311;SDS011;23197;53.912;9.138;2022-11-15T08:09:46;26.35;;;14.38;;
37311;SDS011;23197;53.912;9.138;2022-11-15T08:12:30;26.80;;;13.88;;
37311;SDS011;23197;53.912;9.138;2022-11-15T08:15:15;27.47;;;14.73;;
37311;SDS011;23197;53.912;9.138;2022-11-15T08:18:00;24.80;;;14.18;;
37311;SDS011;23197;53.912;9.138;2022-11-15T08:20:45;27.60;;;15.03;;
37311;SDS011;23197;53.912;9.138;2022-11-15T08:23:29;26.67;;;13.82;;
37311;SDS011;23197;53.912;9.138;2022-11-15T08:26:13;27.23;;;15.10;;
37311;SDS011;23197;53.912;9.138;2022-11-15T08:28:58;24.17;;;13.73;;
37311;SDS011;23197;53.912;9.138;2022-11-15T08:31:42;23.83;;;13.70;;
37311;SDS011;23197;53.912;9.138;2022-11-15T08:34:26;26.95;;;13.30;;
37311;SDS011;23197;53.912;9.138;2022-11-15T08:37:09;26.35;;;13.02;;
37311;SDS011;23197;53.912;9.138;2022-11-15T08:39:53;26.42;;;13.63;;
37311;SDS011;23197;53.912;9.138;2022-11-15T08:45:21;20.52;;;12.85;;
37311;SDS011;23197;53.912;9.138;2022-11-15T08:48:05;20.98;;;12.27;;
37311;SDS011;23197;53.912;9.138;2022-11-15T08:50:52;23.08;;;13.13;;
37311;SDS011;23197;53.912;9.138;2022-11-15T08:53:38;24.83;;;13.20;;
37311;SDS011;23197;53.912;9.138;2022-11-15T08:56:22;23.00;;;13.00;;
37311;SDS011;23197;53.912;9.138;2022-11-15T08:59:06;20.50;;;12.13;;
37311;SDS011;23197;53.912;9.138;2022-11-15T09:01:50;20.20;;;12.77;;
37311;SDS011;23197;53.912;9.138;2022-11-15T09:04:34;21.20;;;12.38;;
37311;SDS011;23197;53.912;9.138;2022-11-15T09:07:18;20.55;;;12.95;;
37311;SDS011;23197;53.912;9.138;2022-11-15T09:10:02;21.58;;;12.73;;
37311;SDS011;23197;53.912;9.138;2022-11-15T09:12:46;22.70;;;13.20;;
37311;SDS011;23197;53.912;9.138;2022-11-15T09:15:31;21.57;;;12.67;;
37311;SDS011;23197;53.912;9.138;2022-11-15T09:18:15;22.73;;;13.30;;
37311;SDS011;23197;53.912;9.138;2022-11-15T09:20:59;23.85;;;13.25;;
37311;SDS011;23197;53.912;9.138;2022-11-15T09:23:45;24.10;;;13.30;;
37311;SDS011;23197;53.912;9.138;2022-11-15T09:26:29;21.92;;;12.63;;
37311;SDS011;23197;53.912;9.138;2022-11-15T09:31:57;26.63;;;13.63;;
37311;SDS011;23197;53.912;9.138;2022-11-15T09:34:41;22.27;;;12.43;;
37311;SDS011;23197;53.912;9.138;2022-11-15T09:37:25;22.42;;;12.30;;
37311;SDS011;23197;53.912;9.138;2022-11-15T09:40:09;23.20;;;12.65;;
37311;SDS011;23197;53.912;9.138;2022-11-15T09:43:00;22.75;;;12.98;;
37311;SDS011;23197;53.912;9.138;2022-11-15T09:46:11;21.35;;;12.27;;
37311;SDS011;23197;53.912;9.138;2022-11-15T09:49:11;21.75;;;12.93;;
37311;SDS011;23197;53.912;9.138;2022-11-15T09:51:59;20.60;;;12.93;;
37311;SDS011;23197;53.912;9.138;2022-11-15T09:54:34;21.80;;;12.80;;
37311;SDS011;23197;53.912;9.138;2022-11-15T09:57:04;19.00;;;11.43;;
37311;SDS011;23197;53.912;9.138;2022-11-15T10:05:23;21.08;;;12.65;;
37311;SDS011;23197;53.912;9.138;2022-11-15T10:10:39;22.35;;;12.80;;
37311;SDS011;23197;53.912;9.138;2022-11-15T10:13:07;24.02;;;14.35;;
37311;SDS011;23197;53.912;9.138;2022-11-15T10:15:42;22.60;;;14.05;;
37311;SDS011;23197;53.912;9.138;2022-11-15T10:18:28;26.45;;;14.85;;
37311;SDS011;23197;53.912;9.138;2022-11-15T10:21:02;22.58;;;13.75;;
37311;SDS011;23197;53.912;9.138;2022-11-15T10:23:38;28.30;;;14.77;;
37311;SDS011;23197;53.912;9.138;2022-11-15T10:26:04;23.00;;;14.05;;
37311;SDS011;23197;53.912;9.138;2022-11-15T10:28:36;23.27;;;13.63;;
37311;SDS011;23197;53.912;9.138;2022-11-15T10:31:01;22.75;;;13.65;;
37311;SDS011;23197;53.912;9.138;2022-11-15T10:33:31;23.80;;;13.10;;
37311;SDS011;23197;53.912;9.138;2022-11-15T10:41:19;21.17;;;13.18;;
37311;SDS011;23197;53.912;9.138;2022-11-15T10:44:01;25.25;;;13.75;;
37311;SDS011;23197;53.912;9.138;2022-11-15T10:46:34;19.65;;;12.55;;
37311;SDS011;23197;53.912;9.138;2022-11-15T10:49:18;20.80;;;13.30;;
37311;SDS011;23197;53.912;9.138;2022-11-15T10:51:47;24.27;;;13.88;;
37311;SDS011;23197;53.912;9.138;2022-11-15T10:54:15;28.55;;;13.85;;
37311;SDS011;23197;53.912;9.138;2022-11-15T10:57:08;25.05;;;14.15;;
37311;SDS011;23197;53.912;9.138;2022-11-15T10:59:38;22.33;;;12.52;;
37311;SDS011;23197;53.912;9.138;2022-11-15T11:02:24;21.50;;;13.27;;
37311;SDS011;23197;53.912;9.138;2022-11-15T11:04:57;22.73;;;13.82;;
37311;SDS011;23197;53.912;9.138;2022-11-15T11:07:25;26.92;;;15.18;;
37311;SDS011;23197;53.912;9.138;2022-11-15T11:10:34;28.88;;;14.32;;
37311;SDS011;23197;53.912;9.138;2022-11-15T11:12:46;22.15;;;14.13;;
37311;SDS011;23197;53.912;9.138;2022-11-15T11:15:13;23.38;;;14.07;;
37311;SDS011;23197;53.912;9.138;2022-11-15T11:25:50;19.90;;;12.50;;
37311;SDS011;23197;53.912;9.138;2022-11-15T11:33:50;22.35;;;13.07;;
37311;SDS011;23197;53.912;9.138;2022-11-15T11:42:02;22.83;;;13.98;;
37311;SDS011;23197;53.912;9.138;2022-11-15T11:44:39;22.02;;;13.95;;
37311;SDS011;23197;53.912;9.138;2022-11-15T11:47:18;25.55;;;14.32;;
37311;SDS011;23197;53.912;9.138;2022-11-15T11:49:50;23.17;;;13.33;;
37311;SDS011;23197;53.912;9.138;2022-11-15T11:52:25;20.35;;;13.02;;
37311;SDS011;23197;53.912;9.138;2022-11-15T12:00:01;22.02;;;12.68;;
37311;SDS011;23197;53.912;9.138;2022-11-15T12:02:41;18.50;;;11.95;;
37311;SDS011;23197;53.912;9.138;2022-11-15T12:07:38;22.63;;;12.75;;
37311;SDS011;23197;53.912;9.138;2022-11-15T12:10:17;19.70;;;12.65;;
37311;SDS011;23197;53.912;9.138;2022-11-15T12:12:56;18.10;;;11.68;;
37311;SDS011;23197;53.912;9.138;2022-11-15T12:15:29;18.30;;;12.38;;
37311;SDS011;23197;53.912;9.138;2022-11-15T12:17:59;18.95;;;11.88;;
37311;SDS011;23197;53.912;9.138;2022-11-15T12:20:27;19.23;;;11.95;;
37311;SDS011;23197;53.912;9.138;2022-11-15T12:23:01;22.02;;;11.40;;
37311;SDS011;23197;53.912;9.138;2022-11-15T12:25:32;18.50;;;11.73;;
37311;SDS011;23197;53.912;9.138;2022-11-15T12:28:08;16.58;;;10.48;;
37311;SDS011;23197;53.912;9.138;2022-11-15T12:30:52;19.02;;;11.48;;
37311;SDS011;23197;53.912;9.138;2022-11-15T12:33:34;17.58;;;11.45;;
37311;SDS011;23197;53.912;9.138;2022-11-15T12:36:04;17.63;;;11.55;;
37311;SDS011;23197;53.912;9.138;2022-11-15T12:41:21;16.58;;;11.05;;
37311;SDS011;23197;53.912;9.138;2022-11-15T12:43:51;16.08;;;10.68;;
37311;SDS011;23197;53.912;9.138;2022-11-15T12:48:58;16.85;;;10.90;;
37311;SDS011;23197;53.912;9.138;2022-11-15T13:04:50;15.68;;;10.68;;
37311;SDS011;23197;53.912;9.138;2022-11-15T13:10:46;17.65;;;10.88;;
37311;SDS011;23197;53.912;9.138;2022-11-15T13:13:02;14.07;;;10.25;;
37311;SDS011;23197;53.912;9.138;2022-11-15T13:15:36;14.77;;;10.32;;
37311;SDS011;23197;53.912;9.138;2022-11-15T13:20:56;14.18;;;10.38;;
37311;SDS011;23197;53.912;9.138;2022-11-15T13:23:22;15.77;;;10.88;;
37311;SDS011;23197;53.912;9.138;2022-11-15T13:30:56;16.63;;;10.48;;
37311;SDS011;23197;53.912;9.138;2022-11-15T13:36:01;14.27;;;10.40;;
37311;SDS011;23197;53.912;9.138;2022-11-15T13:38:30;14.13;;;9.52;;
37311;SDS011;23197;53.912;9.138;2022-11-15T13:41:10;15.85;;;9.65;;
37311;SDS011;23197;53.912;9.138;2022-11-15T13:43:45;14.20;;;9.07;;
37311;SDS011;23197;53.912;9.138;2022-11-15T13:46:19;16.33;;;9.82;;
37311;SDS011;23197;53.912;9.138;2022-11-15T13:48:48;16.52;;;9.27;;
37311;SDS011;23197;53.912;9.138;2022-11-15T13:53:56;16.58;;;10.13;;
37311;SDS011;23197;53.912;9.138;2022-11-15T13:56:27;17.67;;;9.20;;
37311;SDS011;23197;53.912;9.138;2022-11-15T13:58:54;13.23;;;9.02;;
37311;SDS011;23197;53.912;9.138;2022-11-15T14:01:20;15.63;;;9.63;;
37311;SDS011;23197;53.912;9.138;2022-11-15T14:03:48;16.60;;;9.98;;
37311;SDS011;23197;53.912;9.138;2022-11-15T14:06:17;19.33;;;10.93;;
37311;SDS011;23197;53.912;9.138;2022-11-15T14:08:58;17.80;;;11.07;;
37311;SDS011;23197;53.912;9.138;2022-11-15T14:11:24;17.80;;;10.75;;
37311;SDS011;23197;53.912;9.138;2022-11-15T14:16:41;14.63;;;9.57;;
37311;SDS011;23197;53.912;9.138;2022-11-15T14:24:41;17.00;;;10.18;;
37311;SDS011;23197;53.912;9.138;2022-11-15T14:27:42;14.82;;;9.82;;
37311;SDS011;23197;53.912;9.138;2022-11-15T14:30:00;15.45;;;9.40;;
37311;SDS011;23197;53.912;9.138;2022-11-15T14:32:27;14.93;;;9.65;;
37311;SDS011;23197;53.912;9.138;2022-11-15T14:34:58;16.60;;;10.48;;
37311;SDS011;23197;53.912;9.138;2022-11-15T14:37:29;15.40;;;9.95;;
37311;SDS011;23197;53.912;9.138;2022-11-15T14:40:03;16.05;;;9.95;;
37311;SDS011;23197;53.912;9.138;2022-11-15T14:42:30;14.70;;;9.45;;
37311;SDS011;23197;53.912;9.138;2022-11-15T14:44:56;16.38;;;9.50;;
37311;SDS011;23197;53.912;9.138;2022-11-15T14:47:22;15.52;;;9.38;;
37311;SDS011;23197;53.912;9.138;2022-11-15T14:49:47;17.92;;;10.00;;
37311;SDS011;23197;53.912;9.138;2022-11-15T14:52:23;16.13;;;9.90;;
37311;SDS011;23197;53.912;9.138;2022-11-15T14:54:49;15.27;;;9.55;;
37311;SDS011;23197;53.912;9.138;2022-11-15T14:57:15;16.17;;;9.60;;
37311;SDS011;23197;53.912;9.138;2022-11-15T14:59:40;17.85;;;8.98;;
37311;SDS011;23197;53.912;9.138;2022-11-15T15:02:39;16.38;;;9.15;;
37311;SDS011;23197;53.912;9.138;2022-11-15T15:04:57;14.77;;;9.13;;
37311;SDS011;23197;53.912;9.138;2022-11-15T15:07:26;15.55;;;9.98;;
37311;SDS011;23197;53.912;9.138;2022-11-15T15:09:51;14.93;;;9.50;;
37311;SDS011;23197;53.912;9.138;2022-11-15T15:12:21;14.65;;;9.10;;
37311;SDS011;23197;53.912;9.138;2022-11-15T15:14:48;13.35;;;8.98;;
37311;SDS011;23197;53.912;9.138;2022-11-15T15:17:15;18.40;;;9.60;;
37311;SDS011;23197;53.912;9.138;2022-11-15T15:19:41;15.75;;;10.02;;
37311;SDS011;23197;53.912;9.138;2022-11-15T15:22:15;14.60;;;9.02;;
37311;SDS011;23197;53.912;9.138;2022-11-15T15:24:42;18.90;;;9.80;;
37311;SDS011;23197;53.912;9.138;2022-11-15T15:27:09;16.67;;;9.48;;
37311;SDS011;23197;53.912;9.138;2022-11-15T15:29:35;17.52;;;9.73;;
37311;SDS011;23197;53.912;9.138;2022-11-15T15:32:00;18.38;;;10.13;;
37311;SDS011;23197;53.912;9.138;2022-11-15T15:34:26;16.38;;;10.10;;
37311;SDS011;23197;53.912;9.138;2022-11-15T15:39:54;16.50;;;9.38;;
37311;SDS011;23197;53.912;9.138;2022-11-15T15:42:21;13.70;;;8.77;;
37311;SDS011;23197;53.912;9.138;2022-11-15T15:44:47;15.73;;;9.20;;
37311;SDS011;23197;53.912;9.138;2022-11-15T15:47:23;16.27;;;9.02;;
37311;SDS011;23197;53.912;9.138;2022-11-15T15:49:49;15.82;;;9.07;;
37311;SDS011;23197;53.912;9.138;2022-11-15T15:52:16;15.30;;;9.50;;
37311;SDS011;23197;53.912;9.138;2022-11-15T15:54:42;15.15;;;9.02;;
37311;SDS011;23197;53.912;9.138;2022-11-15T15:57:07;15.80;;;9.05;;
37311;SDS011;23197;53.912;9.138;2022-11-15T15:59:36;16.83;;;8.98;;
37311;SDS011;23197;53.912;9.138;2022-11-15T16:02:02;16.27;;;8.80;;
37311;SDS011;23197;53.912;9.138;2022-11-15T16:04:28;14.43;;;8.67;;
37311;SDS011;23197;53.912;9.138;2022-11-15T16:06:57;18.07;;;9.03;;
37311;SDS011;23197;53.912;9.138;2022-11-15T16:09:27;15.25;;;8.65;;
37311;SDS011;23197;53.912;9.138;2022-11-15T16:12:11;14.20;;;9.00;;
37311;SDS011;23197;53.912;9.138;2022-11-15T16:14:37;16.43;;;9.83;;
37311;SDS011;23197;53.912;9.138;2022-11-15T16:17:03;16.03;;;9.47;;
37311;SDS011;23197;53.912;9.138;2022-11-15T16:19:29;14.50;;;8.83;;
37311;SDS011;23197;53.912;9.138;2022-11-15T16:21:54;15.98;;;9.23;;
37311;SDS011;23197;53.912;9.138;2022-11-15T16:24:20;17.43;;;9.63;;
37311;SDS011;23197;53.912;9.138;2022-11-15T16:26:46;13.77;;;9.02;;
37311;SDS011;23197;53.912;9.138;2022-11-15T16:29:13;16.17;;;9.13;;
37311;SDS011;23197;53.912;9.138;2022-11-15T16:31:38;16.10;;;9.98;;
37311;SDS011;23197;53.912;9.138;2022-11-15T16:34:04;19.38;;;9.70;;
37311;SDS011;23197;53.912;9.138;2022-11-15T16:36:30;15.93;;;9.68;;
37311;SDS011;23197;53.912;9.138;2022-11-15T16:38:59;16.40;;;9.90;;
37311;SDS011;23197;53.912;9.138;2022-11-15T16:41:25;14.40;;;8.95;;
37311;SDS011;23197;53.912;9.138;2022-11-15T16:43:51;12.88;;;8.73;;
37311;SDS011;23197;53.912;9.138;2022-11-15T16:46:20;14.25;;;8.45;;
37311;SDS011;23197;53.912;9.138;2022-11-15T16:48:50;16.13;;;9.63;;
37311;SDS011;23197;53.912;9.138;2022-11-15T16:51:17;16.50;;;8.73;;
37311;SDS011;23197;53.912;9.138;2022-11-15T16:53:43;15.35;;;9.32;;
37311;SDS011;23197;53.912;9.138;2022-11-15T16:56:30;16.70;;;9.60;;
37311;SDS011;23197;53.912;9.138;2022-11-15T16:58:55;15.87;;;9.63;;
37311;SDS011;23197;53.912;9.138;2022-11-15T17:01:29;16.37;;;9.53;;
37311;SDS011;23197;53.912;9.138;2022-11-15T17:03:56;14.97;;;9.53;;
37311;SDS011;23197;53.912;9.138;2022-11-15T17:06:23;18.00;;;10.70;;
37311;SDS011;23197;53.912;9.138;2022-11-15T17:08:50;17.03;;;10.70;;
37311;SDS011;23197;53.912;9.138;2022-11-15T17:11:17;17.03;;;11.23;;
37311;SDS011;23197;53.912;9.138;2022-11-15T17:13:44;27.27;;;15.90;;
37311;SDS011;23197;53.912;9.138;2022-11-15T17:16:12;24.97;;;14.53;;
37311;SDS011;23197;53.912;9.138;2022-11-15T17:18:39;23.25;;;13.55;;
37311;SDS011;23197;53.912;9.138;2022-11-15T17:21:07;19.23;;;11.27;;
37311;SDS011;23197;53.912;9.138;2022-11-15T17:23:36;17.27;;;11.17;;
37311;SDS011;23197;53.912;9.138;2022-11-15T17:26:02;16.20;;;10.53;;
37311;SDS011;23197;53.912;9.138;2022-11-15T17:28:33;18.70;;;10.83;;
37311;SDS011;23197;53.912;9.138;2022-11-15T17:30:59;16.33;;;9.77;;
37311;SDS011;23197;53.912;9.138;2022-11-15T17:33:25;17.27;;;10.20;;
37311;SDS011;23197;53.912;9.138;2022-11-15T17:36:02;17.07;;;9.87;;
37311;SDS011;23197;53.912;9.138;2022-11-15T17:38:30;19.33;;;11.90;;
37311;SDS011;23197;53.912;9.138;2022-11-15T17:41:00;17.67;;;10.40;;
37311;SDS011;23197;53.912;9.138;2022-11-15T17:43:26;17.03;;;10.23;;
37311;SDS011;23197;53.912;9.138;2022-11-15T17:45:52;14.10;;;9.17;;
37311;SDS011;23197;53.912;9.138;2022-11-15T17:48:17;17.60;;;10.37;;